Goodwine, Illinois
Current Conditions -  °F | °C
As of 7:50 PM on Saturday 25 Oct 2014 (Local Time) from KTIP Reporting Station
Clear Clear  
Wind Chill: 60°   Ceiling: Unl
Heat Index: 60°   Visibility: 10mi
Dew Point: 43°   Wind: 6mph
Humidity: 55%   Direction: 290°WNW
Pressure: 29.98"   Gusts: NA
Location:  40.57°N, 87.78°W
Report Text: KTIP 260050Z AUTO 29005KT 10SM CLR 15/06 A2998 RMK AO2 T01530062
Loading
Personal Weather Stations






























Interactive Weather Map
Tropical Storm Tracking
New forecast layout! Learn more

10-Day Weather Forecast

Advertisements
Track Severe Weather on mobile